Time;durP1;ratioP1;P1;durP2;ratioP2;P2;SDS_P1;SDS_P2;PMS_P1;PMS_P2;Temp;Humidity;BMP_temperature;BMP_pressure;BME280_temperature;BME280_humidity;BME280_pressure;Samples;Min_cycle;Max_cycle;Signal;HPM_P1;HPM_P2
2022/06/14 00:00:54;;;;;;;2.05;0.65;;;25.00;49.00;;;;;;4920546;29;20058;-45
2022/06/14 00:03:28;;;;;;;3.65;0.82;;;25.00;49.10;;;;;;4920427;29;20839;-46
2022/06/14 00:05:56;;;;;;;1.30;0.50;;;25.00;49.00;;;;;;4921683;29;20043;-45
2022/06/14 00:08:25;;;;;;;1.23;0.50;;;25.00;49.00;;;;;;4921496;29;20027;-45
2022/06/14 00:10:52;;;;;;;1.42;0.50;;;25.00;49.10;;;;;;4921830;29;20039;-45
2022/06/14 00:13:18;;;;;;;0.90;0.50;;;25.00;49.10;;;;;;4919409;29;20601;-45
2022/06/14 00:15:45;;;;;;;2.97;0.70;;;24.90;49.10;;;;;;4918794;29;20028;-45
2022/06/14 00:18:16;;;;;;;1.27;0.60;;;24.90;49.10;;;;;;4919299;29;20055;-46
2022/06/14 00:20:44;;;;;;;1.25;0.70;;;24.90;49.10;;;;;;4921719;29;20024;-45
2022/06/14 00:23:10;;;;;;;1.95;0.70;;;24.90;49.10;;;;;;4921961;29;20016;-45
2022/06/14 00:25:40;;;;;;;1.65;0.63;;;24.90;49.20;;;;;;4920909;29;20024;-44
2022/06/14 00:28:09;;;;;;;2.78;0.80;;;25.00;49.20;;;;;;4920313;29;20112;-45
2022/06/14 00:30:37;;;;;;;2.60;0.88;;;24.90;49.20;;;;;;4919531;29;20094;-45
2022/06/14 00:33:03;;;;;;;1.58;0.60;;;24.90;49.20;;;;;;4921766;29;20047;-44
2022/06/14 00:35:29;;;;;;;1.23;0.60;;;25.00;49.20;;;;;;4918933;29;20653;-45
2022/06/14 00:37:55;;;;;;;1.50;0.60;;;24.90;49.10;;;;;;4918492;29;20039;-45
2022/06/14 00:40:24;;;;;;;1.60;0.60;;;24.90;49.00;;;;;;4918985;29;20761;-43
2022/06/14 00:42:51;;;;;;;2.03;0.75;;;24.90;48.90;;;;;;4920219;29;20710;-45
2022/06/14 00:45:22;;;;;;;1.63;0.65;;;24.90;48.90;;;;;;4919965;29;20043;-44
2022/06/14 00:48:00;;;;;;;2.22;0.80;;;25.00;49.00;;;;;;4917533;29;20028;-45
2022/06/14 00:50:37;;;;;;;1.80;0.70;;;24.90;48.90;;;;;;4918294;29;20106;-46
2022/06/14 00:53:27;;;;;;;1.08;0.60;;;24.90;48.90;;;;;;4919165;29;20039;-45
2022/06/14 00:56:07;;;;;;;1.33;0.57;;;24.90;48.90;;;;;;4916332;29;20042;-45
2022/06/14 00:58:44;;;;;;;2.22;1.00;;;24.90;48.80;;;;;;4916948;29;20033;-45
2022/06/14 01:01:18;;;;;;;1.83;0.70;;;24.90;48.90;;;;;;4916599;29;20075;-45
2022/06/14 01:03:51;;;;;;;1.48;0.70;;;24.90;48.90;;;;;;4920429;29;20607;-45
2022/06/14 01:06:24;;;;;;;2.28;1.05;;;24.90;48.80;;;;;;4902844;29;20055;-46
2022/06/14 01:09:12;;;;;;;1.30;0.60;;;24.90;48.80;;;;;;4917972;29;20103;-43
2022/06/14 01:12:01;;;;;;;1.65;0.70;;;24.90;48.80;;;;;;4919606;29;20042;-45
2022/06/14 01:14:50;;;;;;;1.15;0.55;;;24.90;48.80;;;;;;4918604;29;20024;-45
2022/06/14 01:17:16;;;;;;;1.02;0.57;;;24.90;48.90;;;;;;4916643;29;20047;-45
2022/06/14 01:19:42;;;;;;;2.45;0.90;;;24.90;48.90;;;;;;4917530;29;20676;-45
2022/06/14 01:22:08;;;;;;;1.55;0.73;;;24.90;48.80;;;;;;4917374;29;20024;-45
2022/06/14 01:24:36;;;;;;;2.08;0.70;;;24.90;48.80;;;;;;4917293;29;20111;-45
2022/06/14 01:27:08;;;;;;;1.45;0.70;;;24.90;48.70;;;;;;4917193;29;20039;-45
2022/06/14 01:29:37;;;;;;;1.58;0.63;;;24.90;48.70;;;;;;4916800;29;20554;-46
2022/06/14 01:32:06;;;;;;;2.20;0.70;;;24.90;48.60;;;;;;4916821;29;20544;-44
2022/06/14 01:34:35;;;;;;;0.93;0.50;;;24.90;48.60;;;;;;4917355;29;20032;-44
2022/06/14 01:37:01;;;;;;;2.35;0.77;;;24.90;48.60;;;;;;4917000;29;20064;-44
2022/06/14 01:39:28;;;;;;;1.67;0.90;;;24.90;48.60;;;;;;4917147;29;20038;-43
2022/06/14 01:42:18;;;;;;;1.77;0.77;;;24.90;48.70;;;;;;4917349;29;20032;-44
2022/06/14 01:45:22;;;;;;;1.48;0.70;;;24.90;48.60;;;;;;4920177;29;20032;-46
2022/06/14 01:48:15;;;;;;;1.25;0.65;;;24.90;48.70;;;;;;4919549;29;20026;-44
2022/06/14 01:53:57;;;;;;;1.20;0.63;;;24.90;48.70;;;;;;4916861;29;20041;-45
2022/06/14 01:56:45;;;;;;;1.55;0.75;;;24.80;48.70;;;;;;4918320;29;20126;-44
2022/06/14 01:59:14;;;;;;;1.20;0.60;;;24.80;48.60;;;;;;4916809;29;20036;-44
2022/06/14 02:01:45;;;;;;;1.98;0.80;;;24.80;48.70;;;;;;4916091;29;20544;-44
2022/06/14 02:04:48;;;;;;;1.55;0.68;;;24.80;48.70;;;;;;4916838;29;20782;-46
2022/06/14 02:07:33;;;;;;;2.58;0.90;;;24.90;48.70;;;;;;4916491;29;20024;-45
2022/06/14 02:10:08;;;;;;;1.10;0.60;;;24.80;48.70;;;;;;4918207;29;20128;-44
2022/06/14 02:12:37;;;;;;;1.52;0.75;;;24.80;48.60;;;;;;4916729;29;20051;-44
2022/06/14 02:15:33;;;;;;;1.85;0.90;;;24.80;48.60;;;;;;4915651;29;20479;-45
2022/06/14 02:18:22;;;;;;;2.03;0.80;;;24.80;48.50;;;;;;4918389;29;20027;-44
2022/06/14 02:20:57;;;;;;;1.60;0.60;;;24.80;48.50;;;;;;4914898;29;20044;-45
2022/06/14 02:23:25;;;;;;;2.75;0.90;;;24.80;48.40;;;;;;4921766;29;20032;-44
2022/06/14 02:26:05;;;;;;;1.42;0.70;;;24.80;48.40;;;;;;4915982;29;20028;-44
2022/06/14 02:28:41;;;;;;;1.05;0.60;;;24.80;48.40;;;;;;4916244;29;20091;-45
2022/06/14 02:31:22;;;;;;;1.50;0.70;;;24.80;48.40;;;;;;4915668;29;20043;-45
2022/06/14 02:33:55;;;;;;;1.95;0.80;;;24.80;48.50;;;;;;4916022;29;20024;-44
2022/06/14 02:36:30;;;;;;;2.40;0.90;;;24.80;48.50;;;;;;4916050;29;20035;-45
2022/06/14 02:39:23;;;;;;;1.88;0.70;;;24.80;48.40;;;;;;4914858;29;20024;-45
2022/06/14 02:42:10;;;;;;;2.15;0.88;;;24.80;48.50;;;;;;4914644;29;20027;-45
2022/06/14 02:44:45;;;;;;;2.03;0.80;;;24.80;48.40;;;;;;4916223;29;20023;-45
2022/06/14 02:47:37;;;;;;;2.10;0.90;;;24.80;48.40;;;;;;4915627;29;20035;-44
2022/06/14 02:50:18;;;;;;;1.87;0.90;;;24.70;48.50;;;;;;4916077;29;20123;-45
2022/06/14 02:52:55;;;;;;;1.85;0.95;;;24.80;48.40;;;;;;4916310;29;21052;-45
2022/06/14 02:55:31;;;;;;;2.05;0.85;;;24.80;48.40;;;;;;4916166;29;20039;-44
2022/06/14 02:58:03;;;;;;;1.60;0.80;;;24.80;48.30;;;;;;4916323;29;20031;-44
2022/06/14 03:00:42;;;;;;;2.47;1.13;;;24.80;48.40;;;;;;4918688;29;20046;-46
2022/06/14 03:03:23;;;;;;;2.40;0.65;;;24.80;48.30;;;;;;4924070;29;20031;-44
2022/06/14 03:05:57;;;;;;;2.58;0.80;;;24.80;48.30;;;;;;4919662;29;20019;-45
2022/06/14 03:08:30;;;;;;;2.40;0.90;;;24.80;48.30;;;;;;4919991;29;20028;-45
2022/06/14 03:11:13;;;;;;;1.50;0.70;;;24.80;48.30;;;;;;4919887;29;20404;-45
2022/06/14 03:13:42;;;;;;;;;;;24.70;48.30;;;;;;4920089;29;20039;-46
2022/06/14 03:16:40;;;;;;;2.35;0.90;;;24.80;48.30;;;;;;4923356;29;19974;-45
2022/06/14 03:19:54;;;;;;;2.97;0.90;;;24.70;48.20;;;;;;4912179;29;20086;-49
2022/06/14 03:22:45;;;;;;;1.60;0.80;;;24.70;48.30;;;;;;4902048;29;20040;-45
2022/06/14 03:25:23;;;;;;;2.58;0.90;;;24.70;48.30;;;;;;4919491;29;20512;-45
2022/06/14 03:28:05;;;;;;;2.15;1.00;;;24.70;48.30;;;;;;4919261;29;20028;-45
2022/06/14 03:30:51;;;;;;;2.25;0.90;;;24.70;48.20;;;;;;4918758;29;20071;-45
2022/06/14 03:33:38;;;;;;;2.13;0.95;;;24.70;48.20;;;;;;4915286;29;20032;-45
2022/06/14 03:36:05;;;;;;;2.42;1.05;;;24.70;48.20;;;;;;4918877;29;20055;-46
2022/06/14 03:38:40;;;;;;;1.30;0.60;;;24.70;48.20;;;;;;4918678;29;20063;-45
2022/06/14 03:41:08;;;;;;;1.92;0.90;;;24.70;48.20;;;;;;4918689;29;20056;-44
2022/06/14 03:43:36;;;;;;;1.92;0.77;;;24.70;48.00;;;;;;4918688;29;20020;-45
2022/06/14 03:46:26;;;;;;;2.05;0.93;;;24.70;48.00;;;;;;4918580;29;20020;-46
2022/06/14 03:48:55;;;;;;;1.67;0.90;;;24.70;48.00;;;;;;4921761;29;20028;-44
2022/06/14 03:51:21;;;;;;;2.10;1.00;;;24.70;48.00;;;;;;4919840;29;20372;-45
2022/06/14 03:54:12;;;;;;;1.48;0.85;;;24.70;47.90;;;;;;4919991;29;20036;-45
2022/06/14 03:57:07;;;;;;;1.70;0.93;;;24.70;47.90;;;;;;4920568;29;20055;-45
2022/06/14 04:00:01;;;;;;;3.38;1.40;;;24.70;47.80;;;;;;4921223;29;20082;-46
2022/06/14 04:05:47;;;;;;;2.65;0.98;;;24.70;47.80;;;;;;4918960;29;20027;-47
2022/06/14 04:08:20;;;;;;;1.55;0.70;;;24.70;47.90;;;;;;4919897;29;20025;-46
2022/06/14 04:10:53;;;;;;;1.98;0.95;;;24.70;47.90;;;;;;4917450;29;20063;-45
2022/06/14 04:13:42;;;;;;;2.15;0.90;;;24.70;48.00;;;;;;4917914;29;20543;-46
2022/06/14 04:16:16;;;;;;;2.47;1.10;;;24.70;48.10;;;;;;4918321;29;20059;-44
2022/06/14 04:19:20;;;;;;;1.73;0.75;;;24.70;48.20;;;;;;4918038;29;20043;-44
2022/06/14 04:21:59;;;;;;;43.33;15.30;;;24.70;48.10;;;;;;4895923;29;20071;-45
2022/06/14 04:25:03;;;;;;;55.92;16.52;;;24.70;48.50;;;;;;4894989;29;20067;-45
2022/06/14 04:27:44;;;;;;;28.50;10.70;;;24.60;48.10;;;;;;4898702;29;20056;-45
2022/06/14 04:30:13;;;;;;;22.95;8.38;;;24.60;47.90;;;;;;4914320;29;20039;-45
2022/06/14 04:32:54;;;;;;;18.92;7.20;;;24.70;47.90;;;;;;4924173;29;20098;-45
2022/06/14 04:35:54;;;;;;;13.95;5.65;;;24.60;47.70;;;;;;4926578;29;20055;-45
2022/06/14 04:38:55;;;;;;;13.07;5.15;;;24.60;47.60;;;;;;4917961;29;20057;-45
2022/06/14 04:41:52;;;;;;;15.98;5.18;;;24.60;47.50;;;;;;4909417;29;20074;-44
2022/06/14 04:44:45;;;;;;;11.70;4.45;;;24.60;47.40;;;;;;4916859;29;20570;-45
2022/06/14 04:47:14;;;;;;;8.90;3.50;;;24.60;47.30;;;;;;4917750;29;20048;-44
2022/06/14 04:49:58;;;;;;;12.00;3.65;;;24.60;47.10;;;;;;4919126;29;20110;-45
2022/06/14 04:52:50;;;;;;;7.53;3.28;;;24.60;47.30;;;;;;4917001;29;20037;-45
2022/06/14 04:55:26;;;;;;;8.43;2.92;;;24.60;47.40;;;;;;4916548;29;20032;-45
2022/06/14 04:57:55;;;;;;;7.70;3.33;;;24.60;47.40;;;;;;4914375;29;20030;-44
2022/06/14 05:00:31;;;;;;;7.85;3.15;;;24.60;47.30;;;;;;4923263;29;20585;-45
2022/06/14 05:03:04;;;;;;;6.75;3.08;;;24.60;47.40;;;;;;4923572;29;20024;-44
2022/06/14 05:05:42;;;;;;;6.82;2.75;;;24.60;47.70;;;;;;4927278;29;20041;-43
2022/06/14 05:08:19;;;;;;;6.15;2.40;;;24.60;47.70;;;;;;4924100;29;20028;-43
2022/06/14 05:10:57;;;;;;;8.55;2.90;;;24.60;47.50;;;;;;4922999;29;20035;-44
2022/06/14 05:13:48;;;;;;;4.70;2.03;;;24.60;47.60;;;;;;4917987;29;20056;-44
2022/06/14 05:16:21;;;;;;;6.03;2.40;;;24.60;47.50;;;;;;4917417;29;20465;-44
2022/06/14 05:19:03;;;;;;;6.93;2.40;;;24.60;47.40;;;;;;4917504;29;20042;-42
2022/06/14 05:22:08;;;;;;;5.15;1.60;;;24.50;47.40;;;;;;4917499;29;20028;-44
2022/06/14 05:24:36;;;;;;;5.20;1.67;;;24.50;47.40;;;;;;4917467;29;20039;-43
2022/06/14 05:27:13;;;;;;;4.95;1.83;;;24.60;47.30;;;;;;4917554;29;20048;-43
2022/06/14 05:30:43;;;;;;;3.47;1.60;;;24.50;47.20;;;;;;4917288;29;20031;-43
2022/06/14 05:33:33;;;;;;;4.10;2.00;;;24.60;47.10;;;;;;4886293;29;20051;-44
2022/06/14 05:36:10;;;;;;;4.93;1.58;;;24.60;47.00;;;;;;4902623;29;20140;-44
2022/06/14 05:39:05;;;;;;;4.18;1.98;;;24.50;47.00;;;;;;4918812;29;20036;-46
2022/06/14 05:41:52;;;;;;;4.43;1.80;;;24.50;46.60;;;;;;4916544;29;20036;-46
2022/06/14 05:44:30;;;;;;;5.22;1.90;;;24.60;47.10;;;;;;4918082;29;20035;-44
2022/06/14 05:47:03;;;;;;;4.03;1.77;;;24.60;46.10;;;;;;4916915;29;20038;-46
2022/06/14 05:49:32;;;;;;;;;;;24.60;45.80;;;;;;4917995;29;20032;-46
2022/06/14 05:52:05;;;;;;;3.83;1.73;;;24.50;46.00;;;;;;4917028;29;19942;-45
2022/06/14 05:54:36;;;;;;;5.03;1.70;;;24.50;45.60;;;;;;4916511;29;20044;-44
2022/06/14 05:57:40;;;;;;;4.25;1.73;;;24.50;45.80;;;;;;4917764;29;20017;-46
2022/06/14 06:00:14;;;;;;;3.42;1.60;;;24.50;45.70;;;;;;4916525;29;20052;-44
2022/06/14 06:03:05;;;;;;;4.45;1.77;;;24.50;45.60;;;;;;4915456;29;20028;-43
2022/06/14 06:05:48;;;;;;;4.00;1.58;;;24.50;46.10;;;;;;4915987;29;20039;-44
2022/06/14 06:08:26;;;;;;;3.83;1.27;;;24.60;46.30;;;;;;4915074;29;20110;-43
2022/06/14 06:11:00;;;;;;;2.55;1.27;;;24.60;46.30;;;;;;4917758;29;20051;-44
2022/06/14 06:14:11;;;;;;;5.00;2.35;;;24.60;46.20;;;;;;4918004;29;20640;-46
2022/06/14 06:16:47;;;;;;;3.90;1.50;;;24.60;46.90;;;;;;4882896;29;20040;-43
2022/06/14 06:19:21;;;;;;;3.65;1.25;;;24.60;47.30;;;;;;4882964;29;20040;-45
2022/06/14 06:22:08;;;;;;;5.38;2.35;;;24.60;47.50;;;;;;4902901;29;20040;-44
2022/06/14 06:24:44;;;;;;;4.20;1.65;;;24.60;47.40;;;;;;4917470;29;20028;-45
2022/06/14 06:27:11;;;;;;;2.15;1.10;;;24.60;47.00;;;;;;4916137;29;20035;-43
2022/06/14 06:29:48;;;;;;;13.60;5.72;;;24.70;46.90;;;;;;4912049;29;20080;-44
2022/06/14 06:32:14;;;;;;;15.80;6.75;;;24.70;47.60;;;;;;4907393;29;20016;-45
2022/06/14 06:34:41;;;;;;;10.80;5.07;;;24.70;47.70;;;;;;4907043;29;20040;-44
2022/06/14 06:37:19;;;;;;;9.15;3.85;;;24.70;47.60;;;;;;4907227;29;20024;-45
2022/06/14 06:39:45;;;;;;;7.35;3.25;;;24.70;47.50;;;;;;4914118;29;20395;-45
2022/06/14 06:42:33;;;;;;;6.40;2.85;;;24.70;47.40;;;;;;4927098;29;20404;-44
2022/06/14 06:45:27;;;;;;;7.07;2.50;;;24.70;47.30;;;;;;4926164;29;20027;-44
2022/06/14 06:48:05;;;;;;;4.95;2.08;;;24.70;47.20;;;;;;4926711;29;20042;-44
2022/06/14 06:50:47;;;;;;;6.88;2.42;;;24.80;47.20;;;;;;4926227;29;20040;-44
2022/06/14 06:53:16;;;;;;;8.02;3.05;;;24.70;47.20;;;;;;4926286;29;20103;-44
2022/06/14 06:56:10;;;;;;;5.85;2.55;;;24.70;47.20;;;;;;4926271;29;20031;-45
2022/06/14 06:58:50;;;;;;;4.57;2.20;;;24.80;47.20;;;;;;4926119;29;20027;-43
2022/06/14 07:01:24;;;;;;;5.45;2.10;;;24.80;47.20;;;;;;4926041;29;20676;-45
2022/06/14 07:04:01;;;;;;;3.75;2.00;;;24.80;47.30;;;;;;4926132;29;20107;-43
2022/06/14 07:06:39;;;;;;;5.40;2.25;;;24.80;47.30;;;;;;4925438;29;20244;-44
2022/06/14 07:09:24;;;;;;;4.25;1.83;;;24.80;47.30;;;;;;4926250;29;20036;-44
2022/06/14 07:12:00;;;;;;;4.32;1.90;;;24.80;47.40;;;;;;4926400;29;20057;-45
2022/06/14 07:14:39;;;;;;;6.72;2.15;;;24.80;47.40;;;;;;4926893;29;20044;-43
2022/06/14 07:17:32;;;;;;;4.65;1.92;;;24.80;47.40;;;;;;4925993;29;20035;-44
2022/06/14 07:20:32;;;;;;;5.18;2.13;;;24.80;47.40;;;;;;4926107;29;20051;-44
2022/06/14 07:23:19;;;;;;;5.10;2.08;;;24.80;47.40;;;;;;4923917;29;20036;-45
2022/06/14 07:26:15;;;;;;;3.95;2.03;;;24.80;47.50;;;;;;4916573;29;20325;-44
2022/06/14 07:28:48;;;;;;;4.75;1.95;;;24.80;47.50;;;;;;4907349;29;20040;-43
2022/06/14 07:31:26;;;;;;;3.72;1.58;;;24.80;47.50;;;;;;4907582;29;20035;-44
2022/06/14 07:33:52;;;;;;;5.32;1.77;;;24.80;47.50;;;;;;4907371;29;20573;-44
2022/06/14 07:36:56;;;;;;;3.83;1.65;;;24.80;47.50;;;;;;4906907;29;20032;-45
2022/06/14 07:39:40;;;;;;;4.18;1.92;;;24.80;47.50;;;;;;4909801;29;20035;-45
2022/06/14 07:42:19;;;;;;;5.13;1.70;;;24.80;47.60;;;;;;4926567;29;20024;-43
2022/06/14 07:44:52;;;;;;;3.22;1.73;;;24.80;47.60;;;;;;4926026;29;20732;-44
2022/06/14 07:47:33;;;;;;;3.97;1.50;;;24.80;47.60;;;;;;4929009;29;20067;-44
2022/06/14 07:50:04;;;;;;;5.30;2.13;;;24.80;47.60;;;;;;4929454;29;20697;-44
2022/06/14 07:53:08;;;;;;;3.22;1.60;;;24.80;48.40;;;;;;4929492;29;20062;-44
2022/06/14 07:55:55;;;;;;;2.90;1.33;;;24.80;47.60;;;;;;4925644;29;20039;-44
2022/06/14 07:58:32;;;;;;;3.55;1.60;;;24.80;47.60;;;;;;4929008;29;20036;-43
2022/06/14 08:01:09;;;;;;;3.97;1.55;;;24.80;47.70;;;;;;4929143;29;20123;-44
2022/06/14 08:03:47;;;;;;;4.35;1.92;;;24.80;47.70;;;;;;4929269;29;20036;-44
2022/06/14 08:06:20;;;;;;;4.43;1.77;;;24.80;47.70;;;;;;4929137;29;20023;-44
2022/06/14 08:08:52;;;;;;;5.07;1.95;;;24.90;47.80;;;;;;4928308;29;20484;-43
2022/06/14 08:11:40;;;;;;;4.60;1.58;;;24.80;47.80;;;;;;4928762;29;20115;-44
2022/06/14 08:14:21;;;;;;;3.97;1.55;;;24.90;47.80;;;;;;4928007;29;20038;-43
2022/06/14 08:16:48;;;;;;;4.00;1.70;;;24.90;47.90;;;;;;4927821;29;20023;-44
2022/06/14 08:19:47;;;;;;;4.57;2.05;;;24.90;47.90;;;;;;4928250;29;20056;-45
2022/06/14 08:22:21;;;;;;;4.00;1.60;;;24.90;47.90;;;;;;4920570;29;20060;-44
2022/06/14 08:24:52;;;;;;;3.78;1.60;;;24.90;47.90;;;;;;4928385;29;20024;-46
2022/06/14 08:28:10;;;;;;;2.72;1.30;;;24.90;47.80;;;;;;4928894;29;20031;-44
2022/06/14 08:31:12;;;;;;;3.33;1.50;;;24.90;47.90;;;;;;4912393;29;20082;-43
2022/06/14 08:33:47;;;;;;;2.53;1.20;;;24.90;47.80;;;;;;4919625;29;20377;-44
2022/06/14 08:36:36;;;;;;;3.40;1.40;;;24.90;47.90;;;;;;4928046;29;20287;-44
2022/06/14 08:39:08;;;;;;;3.35;1.25;;;24.90;47.90;;;;;;4928024;29;20062;-45
2022/06/14 08:41:40;;;;;;;;;;;24.90;48.70;;;;;;4928400;29;20090;-45
2022/06/14 08:44:21;;;;;;;4.30;1.80;;;24.90;47.90;;;;;;4927560;29;19907;-44
2022/06/14 08:47:11;;;;;;;3.70;1.30;;;24.90;48.00;;;;;;4927948;29;20075;-44
2022/06/14 08:49:51;;;;;;;3.33;1.30;;;24.90;48.00;;;;;;4928060;29;20688;-44
2022/06/14 08:52:43;;;;;;;4.28;1.52;;;24.90;48.00;;;;;;4928114;29;20030;-45
2022/06/14 08:55:40;;;;;;;2.85;1.20;;;24.90;48.10;;;;;;4912676;29;20040;-43
2022/06/14 08:58:33;;;;;;;3.90;1.65;;;24.90;48.00;;;;;;4903895;29;20050;-44
2022/06/14 09:01:15;;;;;;;2.42;1.15;;;24.90;48.00;;;;;;4915367;29;20565;-45
2022/06/14 09:04:25;;;;;;;2.90;1.30;;;24.90;48.00;;;;;;4924704;29;20129;-45
2022/06/14 09:06:58;;;;;;;3.60;1.40;;;24.90;48.00;;;;;;4924381;29;20174;-44
2022/06/14 09:09:54;;;;;;;3.22;1.35;;;24.90;48.00;;;;;;4926895;29;20035;-43
2022/06/14 09:12:20;;;;;;;3.00;1.20;;;25.00;48.00;;;;;;4927616;29;20032;-44
2022/06/14 09:15:21;;;;;;;3.20;1.17;;;24.90;48.00;;;;;;4927589;29;20028;-45
2022/06/14 09:18:01;;;;;;;2.33;1.10;;;24.90;48.00;;;;;;4886640;29;20789;-43
2022/06/14 09:20:37;;;;;;;3.13;1.15;;;24.90;48.00;;;;;;4923133;29;20036;-44
2022/06/14 09:23:23;;;;;;;2.92;1.05;;;25.00;48.00;;;;;;4927322;29;20036;-44
2022/06/14 09:26:18;;;;;;;3.05;1.10;;;24.90;48.00;;;;;;4927353;29;20601;-44
2022/06/14 09:29:02;;;;;;;3.95;1.40;;;25.00;48.00;;;;;;4891483;29;20049;-45
2022/06/14 09:31:46;;;;;;;3.28;1.42;;;24.90;48.00;;;;;;4927331;29;20036;-44
2022/06/14 09:34:30;;;;;;;3.00;1.48;;;25.00;48.00;;;;;;4927444;29;20491;-45
2022/06/14 09:37:13;;;;;;;2.67;1.23;;;24.90;48.00;;;;;;4927097;29;20059;-44
2022/06/14 09:39:51;;;;;;;2.30;1.10;;;25.00;48.10;;;;;;4927061;29;20159;-43
2022/06/14 09:42:36;;;;;;;3.97;1.48;;;25.00;48.10;;;;;;4927717;29;20042;-44
2022/06/14 09:45:21;;;;;;;2.42;0.93;;;24.90;48.10;;;;;;4926738;29;20055;-44
2022/06/14 09:48:22;;;;;;;3.67;1.27;;;25.00;48.10;;;;;;4927396;29;20031;-44
2022/06/14 09:51:12;;;;;;;2.25;1.10;;;25.00;48.10;;;;;;4926848;29;20036;-45
2022/06/14 09:54:05;;;;;;;3.13;1.20;;;25.00;48.00;;;;;;4926382;29;20036;-45
2022/06/14 09:56:52;;;;;;;2.83;1.20;;;25.00;48.00;;;;;;4926413;29;20046;-44
2022/06/14 09:59:44;;;;;;;2.70;1.10;;;25.00;48.00;;;;;;4925624;29;20032;-44
2022/06/14 10:02:25;;;;;;;2.60;1.08;;;25.00;48.00;;;;;;4927091;29;20036;-44
2022/06/14 10:05:16;;;;;;;2.63;1.15;;;25.00;48.00;;;;;;4926310;29;20071;-45
2022/06/14 10:08:07;;;;;;;3.10;1.05;;;25.00;48.00;;;;;;4925868;29;20035;-44
2022/06/14 10:10:57;;;;;;;1.92;1.00;;;25.00;48.00;;;;;;4926970;29;20040;-45
2022/06/14 10:13:47;;;;;;;2.67;1.10;;;25.00;48.10;;;;;;4927099;29;20054;-45
2022/06/14 10:16:40;;;;;;;3.22;1.00;;;25.00;48.10;;;;;;4927122;29;20039;-44
2022/06/14 10:19:09;;;;;;;3.22;1.30;;;25.00;48.10;;;;;;4927093;29;20070;-45
2022/06/14 10:21:47;;;;;;;2.60;1.10;;;25.00;48.10;;;;;;4926927;29;20041;-46
2022/06/14 10:24:21;;;;;;;2.08;1.02;;;25.00;48.10;;;;;;4926964;29;20031;-45
2022/06/14 10:30:16;;;;;;;2.47;1.15;;;25.00;48.10;;;;;;4926913;29;20094;-45
2022/06/14 10:33:07;;;;;;;2.72;1.20;;;25.00;48.10;;;;;;4926785;29;20087;-43
2022/06/14 10:35:50;;;;;;;3.00;1.30;;;25.00;48.20;;;;;;4927419;29;20034;-44
2022/06/14 10:38:22;;;;;;;2.13;1.10;;;25.00;48.10;;;;;;4926949;29;20481;-44
2022/06/14 10:41:23;;;;;;;2.50;1.00;;;25.00;48.10;;;;;;4926485;29;20028;-43
2022/06/14 10:44:01;;;;;;;2.63;1.08;;;25.00;48.10;;;;;;4926799;29;20566;-44
2022/06/14 10:46:39;;;;;;;2.60;0.85;;;25.00;48.10;;;;;;4926037;29;20055;-45
2022/06/14 10:49:20;;;;;;;2.50;1.20;;;25.00;48.00;;;;;;4926408;29;20151;-45
2022/06/14 10:51:59;;;;;;;2.72;1.20;;;25.00;48.00;;;;;;4926067;29;20114;-46
2022/06/14 10:54:55;;;;;;;3.40;1.30;;;25.00;48.00;;;;;;4925847;29;20082;-45
2022/06/14 10:57:38;;;;;;;2.20;0.90;;;25.00;48.00;;;;;;4925648;29;20083;-45
2022/06/14 11:00:08;;;;;;;;;;;25.00;48.00;;;;;;4926139;29;20078;-45
2022/06/14 11:03:01;;;;;;;2.17;1.00;;;25.00;48.00;;;;;;4926617;29;20299;-44
2022/06/14 11:05:31;;;;;;;2.08;0.90;;;25.00;48.10;;;;;;4925541;29;20364;-51
2022/06/14 11:08:04;;;;;;;2.05;1.00;;;25.00;48.00;;;;;;4924857;29;20035;-45
2022/06/14 11:10:39;;;;;;;2.60;1.05;;;25.00;48.10;;;;;;4917934;29;20305;-45
2022/06/14 11:13:28;;;;;;;2.22;0.90;;;25.10;48.20;;;;;;4926482;29;20040;-44
2022/06/14 11:16:41;;;;;;;2.25;0.95;;;25.10;48.10;;;;;;4926433;29;20492;-45
2022/06/14 11:19:29;;;;;;;;;;;25.10;48.10;;;;;;4886449;29;20493;-45
2022/06/14 11:22:22;;;;;;;2.10;1.00;;;25.10;48.10;;;;;;4929772;29;19962;-45
2022/06/14 11:25:07;;;;;;;2.28;1.00;;;25.10;48.10;;;;;;4929830;29;20099;-45
2022/06/14 11:27:47;;;;;;;1.83;1.00;;;25.10;48.10;;;;;;4929763;29;20031;-44
2022/06/14 11:30:12;;;;;;;2.45;0.90;;;25.10;48.10;;;;;;4930073;29;20090;-44
2022/06/14 11:33:04;;;;;;;2.38;1.00;;;25.10;48.10;;;;;;4929673;29;20032;-45
2022/06/14 11:35:38;;;;;;;1.98;0.82;;;25.10;48.10;;;;;;4929457;29;20366;-44
2022/06/14 11:38:16;;;;;;;3.08;1.10;;;25.10;48.00;;;;;;4929478;29;20078;-45
2022/06/14 11:40:47;;;;;;;2.78;1.25;;;25.10;48.00;;;;;;4929574;29;20040;-45
2022/06/14 11:43:16;;;;;;;2.38;0.98;;;25.10;48.70;;;;;;4929495;29;20031;-45
2022/06/14 11:45:59;;;;;;;2.08;0.90;;;25.10;47.90;;;;;;4928941;29;20102;-45
2022/06/14 11:48:27;;;;;;;;;;;25.10;48.00;;;;;;4929657;29;20047;-46
2022/06/14 11:50:56;;;;;;;2.15;0.98;;;25.10;47.90;;;;;;4929334;29;19913;-45
2022/06/14 11:53:41;;;;;;;1.67;0.80;;;25.10;47.90;;;;;;4929086;29;20035;-43
2022/06/14 11:56:27;;;;;;;2.17;1.00;;;25.20;47.90;;;;;;4927111;29;20051;-45
2022/06/14 11:59:15;;;;;;;1.83;0.90;;;25.20;48.00;;;;;;4929197;29;20027;-45
2022/06/14 12:02:08;;;;;;;2.38;0.90;;;25.20;48.00;;;;;;4929321;29;20587;-45
2022/06/14 12:04:47;;;;;;;2.08;0.70;;;25.20;48.00;;;;;;4929505;29;20027;-43
2022/06/14 12:07:17;;;;;;;1.88;0.82;;;25.20;48.00;;;;;;4928804;29;20084;-45
2022/06/14 12:10:18;;;;;;;1.95;0.95;;;25.20;48.00;;;;;;4928884;29;20028;-45
2022/06/14 12:13:05;;;;;;;2.10;0.77;;;25.20;48.10;;;;;;4906970;29;20063;-44
2022/06/14 12:15:54;;;;;;;2.25;0.82;;;25.20;48.00;;;;;;4920195;29;20043;-45
2022/06/14 12:18:23;;;;;;;1.60;0.77;;;25.20;48.00;;;;;;4910329;29;20345;-45
2022/06/14 12:21:05;;;;;;;2.15;0.70;;;25.20;47.90;;;;;;4910155;29;20032;-44
2022/06/14 12:23:37;;;;;;;1.70;0.80;;;25.20;47.90;;;;;;4909881;29;20031;-42
2022/06/14 12:26:34;;;;;;;2.37;1.27;;;25.20;47.90;;;;;;4921283;29;20661;-44
2022/06/14 12:29:24;;;;;;;1.65;0.95;;;25.20;47.90;;;;;;4927878;29;20027;-46
2022/06/14 12:32:02;;;;;;;1.52;0.80;;;25.30;47.90;;;;;;4928045;29;20110;-44
2022/06/14 12:34:33;;;;;;;2.25;0.93;;;25.30;47.90;;;;;;4928865;29;20086;-45
2022/06/14 12:37:32;;;;;;;2.25;0.90;;;25.30;47.90;;;;;;4928486;29;20032;-45
2022/06/14 12:40:24;;;;;;;1.65;0.70;;;25.30;47.90;;;;;;4898132;29;20515;-47
2022/06/14 12:42:59;;;;;;;1.40;0.80;;;25.30;47.90;;;;;;4928846;29;20083;-44
2022/06/14 12:45:33;;;;;;;2.15;0.75;;;25.30;47.90;;;;;;4928415;29;20027;-45
2022/06/14 12:48:19;;;;;;;1.73;0.80;;;25.30;47.90;;;;;;4927984;29;20024;-45
2022/06/14 12:50:49;;;;;;;2.42;1.00;;;25.30;47.80;;;;;;4927980;29;20047;-45
2022/06/14 12:53:21;;;;;;;1.95;0.80;;;25.40;47.80;;;;;;4929116;29;20067;-45
2022/06/14 12:55:52;;;;;;;1.52;0.70;;;25.40;47.80;;;;;;4927954;29;20488;-44
2022/06/14 12:58:27;;;;;;;2.10;0.80;;;25.40;47.80;;;;;;4927773;29;20039;-44
2022/06/14 13:01:02;;;;;;;1.70;0.80;;;25.40;47.80;;;;;;4927763;29;20032;-45
2022/06/14 13:03:28;;;;;;;1.80;0.88;;;25.40;47.80;;;;;;4928083;29;20619;-45
2022/06/14 13:06:09;;;;;;;2.33;0.95;;;25.40;47.80;;;;;;4927053;29;20131;-45
2022/06/14 13:08:50;;;;;;;1.88;0.85;;;25.50;47.70;;;;;;4928261;29;20036;-44
2022/06/14 13:11:30;;;;;;;1.60;0.75;;;25.40;47.70;;;;;;4927368;29;20071;-45
2022/06/14 13:14:15;;;;;;;1.73;0.80;;;25.50;47.70;;;;;;4927992;29;20031;-45
2022/06/14 13:16:59;;;;;;;2.60;0.90;;;25.50;47.70;;;;;;4927817;29;20040;-45
2022/06/14 13:20:05;;;;;;;2.05;0.80;;;25.50;47.60;;;;;;4922126;29;20098;-46
2022/06/14 13:22:50;;;;;;;2.80;1.00;;;25.50;47.60;;;;;;4906893;29;20039;-45
2022/06/14 13:25:35;;;;;;;1.52;0.80;;;25.50;47.60;;;;;;4914247;29;20246;-45
2022/06/14 13:28:09;;;;;;;1.77;0.73;;;25.50;47.60;;;;;;4927115;29;20031;-46
2022/06/14 13:30:41;;;;;;;2.10;0.98;;;25.50;47.60;;;;;;4927228;29;20160;-43
2022/06/14 13:33:26;;;;;;;1.77;0.90;;;25.50;47.60;;;;;;4927584;29;20488;-45
2022/06/14 13:36:17;;;;;;;1.70;0.68;;;25.50;47.60;;;;;;4926942;29;20040;-44
2022/06/14 13:38:52;;;;;;;1.77;0.90;;;25.60;47.60;;;;;;4927283;29;20039;-43
2022/06/14 13:42:03;;;;;;;1.73;0.80;;;25.60;47.50;;;;;;4927511;29;20046;-44
2022/06/14 13:44:37;;;;;;;1.70;0.70;;;25.60;47.60;;;;;;4925786;29;20024;-44
2022/06/14 13:47:14;;;;;;;2.03;0.93;;;25.60;47.60;;;;;;4926557;29;20524;-44
2022/06/14 13:50:01;;;;;;;2.05;0.90;;;25.60;47.50;;;;;;4927061;29;20577;-43
2022/06/14 13:52:40;;;;;;;1.60;0.80;;;25.60;47.50;;;;;;4925821;29;20031;-44
2022/06/14 13:55:06;;;;;;;1.98;0.90;;;25.60;47.50;;;;;;4926487;29;20387;-45
2022/06/14 13:57:35;;;;;;;1.50;0.70;;;25.60;47.40;;;;;;4926674;29;20059;-44
2022/06/14 14:00:21;;;;;;;1.27;0.60;;;25.60;47.40;;;;;;4925362;29;20031;-45
2022/06/14 14:03:05;;;;;;;1.35;0.65;;;25.60;47.40;;;;;;4926287;29;20028;-45
2022/06/14 14:05:45;;;;;;;2.30;0.90;;;25.60;47.40;;;;;;4926089;29;20023;-45
2022/06/14 14:08:23;;;;;;;2.63;0.73;;;25.60;47.40;;;;;;4926950;29;20422;-45